sensor_id;sensor_type;location;lat;lon;timestamp;pressure;altitude;pressure_sealevel;temperature;humidity
66703;BME280;60933;46.398;-63.798;2022-08-27T00:00:40;101139.63;;;21.99;68.15
66703;BME280;60933;46.398;-63.798;2022-08-27T00:03:07;101146.88;;;21.95;67.85
66703;BME280;60933;46.398;-63.798;2022-08-27T00:05:33;101143.41;;;21.95;67.62
66703;BME280;60933;46.398;-63.798;2022-08-27T00:08:04;101147.81;;;21.94;68.53
66703;BME280;60933;46.398;-63.798;2022-08-27T00:10:31;101144.44;;;21.92;68.58
66703;BME280;60933;46.398;-63.798;2022-08-27T00:12:59;101146.44;;;21.89;69.13
66703;BME280;60933;46.398;-63.798;2022-08-27T00:15:25;101136.97;;;21.86;69.80
66703;BME280;60933;46.398;-63.798;2022-08-27T00:17:51;101136.03;;;21.87;70.49
66703;BME280;60933;46.398;-63.798;2022-08-27T00:20:20;101136.22;;;21.84;70.27
66703;BME280;60933;46.398;-63.798;2022-08-27T00:22:47;101133.06;;;21.79;70.66
66703;BME280;60933;46.398;-63.798;2022-08-27T00:25:13;101146.94;;;21.81;70.76
66703;BME280;60933;46.398;-63.798;2022-08-27T00:27:40;101142.63;;;21.80;70.52
66703;BME280;60933;46.398;-63.798;2022-08-27T00:30:10;101135.16;;;21.74;72.75
66703;BME280;60933;46.398;-63.798;2022-08-27T00:32:38;101131.78;;;21.72;72.24
66703;BME280;60933;46.398;-63.798;2022-08-27T00:35:06;101132.84;;;21.69;72.59
66703;BME280;60933;46.398;-63.798;2022-08-27T00:37:32;101123.38;;;21.66;73.99
66703;BME280;60933;46.398;-63.798;2022-08-27T00:39:59;101119.19;;;21.64;74.32
66703;BME280;60933;46.398;-63.798;2022-08-27T00:42:27;101116.84;;;21.59;73.72
66703;BME280;60933;46.398;-63.798;2022-08-27T00:44:54;101110.84;;;21.57;74.18
66703;BME280;60933;46.398;-63.798;2022-08-27T00:47:24;101106.59;;;21.55;74.72
66703;BME280;60933;46.398;-63.798;2022-08-27T00:49:57;101099.13;;;21.48;74.75
66703;BME280;60933;46.398;-63.798;2022-08-27T00:52:31;101085.03;;;21.49;75.06
66703;BME280;60933;46.398;-63.798;2022-08-27T00:55:12;101078.22;;;21.47;76.01
66703;BME280;60933;46.398;-63.798;2022-08-27T00:57:41;101060.88;;;21.44;75.08
66703;BME280;60933;46.398;-63.798;2022-08-27T01:00:11;101044.69;;;21.38;74.93
66703;BME280;60933;46.398;-63.798;2022-08-27T01:02:38;101043.53;;;21.42;76.12
66703;BME280;60933;46.398;-63.798;2022-08-27T01:05:17;101020.09;;;21.39;76.61
66703;BME280;60933;46.398;-63.798;2022-08-27T01:07:49;101001.00;;;21.37;76.01
66703;BME280;60933;46.398;-63.798;2022-08-27T01:10:19;100979.13;;;21.36;75.62
66703;BME280;60933;46.398;-63.798;2022-08-27T01:12:46;100980.00;;;21.37;76.06
66703;BME280;60933;46.398;-63.798;2022-08-27T01:15:14;101015.06;;;21.35;75.83
66703;BME280;60933;46.398;-63.798;2022-08-27T01:17:42;101013.19;;;21.38;77.06
66703;BME280;60933;46.398;-63.798;2022-08-27T01:20:17;101050.31;;;21.31;73.46
66703;BME280;60933;46.398;-63.798;2022-08-27T01:25:17;101065.91;;;21.34;77.68
66703;BME280;60933;46.398;-63.798;2022-08-27T01:27:46;101071.13;;;21.34;79.04
66703;BME280;60933;46.398;-63.798;2022-08-27T01:30:15;101079.31;;;21.30;78.21
66703;BME280;60933;46.398;-63.798;2022-08-27T01:32:43;101071.56;;;21.28;78.62
66703;BME280;60933;46.398;-63.798;2022-08-27T01:35:11;101083.91;;;21.26;80.38
66703;BME280;60933;46.398;-63.798;2022-08-27T01:37:40;101059.53;;;21.24;78.39
66703;BME280;60933;46.398;-63.798;2022-08-27T01:40:07;101057.84;;;21.23;78.48
66703;BME280;60933;46.398;-63.798;2022-08-27T01:42:37;101046.22;;;21.27;75.04
66703;BME280;60933;46.398;-63.798;2022-08-27T01:45:12;101046.75;;;21.32;74.91
66703;BME280;60933;46.398;-63.798;2022-08-27T01:47:39;101042.25;;;21.34;78.83
66703;BME280;60933;46.398;-63.798;2022-08-27T01:50:09;101043.50;;;21.29;77.76
66703;BME280;60933;46.398;-63.798;2022-08-27T01:52:36;101089.34;;;21.23;75.76
66703;BME280;60933;46.398;-63.798;2022-08-27T01:55:05;101110.34;;;21.23;79.06
66703;BME280;60933;46.398;-63.798;2022-08-27T01:57:32;101056.03;;;21.11;79.17
66703;BME280;60933;46.398;-63.798;2022-08-27T02:00:03;101089.25;;;20.97;79.26
66703;BME280;60933;46.398;-63.798;2022-08-27T02:02:30;101075.97;;;20.86;81.46
66703;BME280;60933;46.398;-63.798;2022-08-27T02:04:57;101060.78;;;20.77;79.92
66703;BME280;60933;46.398;-63.798;2022-08-27T02:07:23;101066.25;;;20.74;77.47
66703;BME280;60933;46.398;-63.798;2022-08-27T02:09:49;101096.03;;;20.73;78.43
66703;BME280;60933;46.398;-63.798;2022-08-27T02:12:16;101086.31;;;20.75;80.83
66703;BME280;60933;46.398;-63.798;2022-08-27T02:14:42;101075.41;;;20.66;81.42
66703;BME280;60933;46.398;-63.798;2022-08-27T02:17:08;101058.91;;;20.64;81.43
66703;BME280;60933;46.398;-63.798;2022-08-27T02:19:37;101067.19;;;20.58;79.37
66703;BME280;60933;46.398;-63.798;2022-08-27T02:22:03;101083.28;;;20.66;79.50
66703;BME280;60933;46.398;-63.798;2022-08-27T02:24:29;101078.78;;;20.68;77.72
66703;BME280;60933;46.398;-63.798;2022-08-27T02:26:56;101065.09;;;20.78;76.12
66703;BME280;60933;46.398;-63.798;2022-08-27T02:29:23;101063.25;;;20.80;78.75
66703;BME280;60933;46.398;-63.798;2022-08-27T02:31:49;101072.25;;;20.76;79.19
66703;BME280;60933;46.398;-63.798;2022-08-27T02:34:16;101091.34;;;20.78;78.28
66703;BME280;60933;46.398;-63.798;2022-08-27T02:36:43;101086.84;;;20.80;78.71
66703;BME280;60933;46.398;-63.798;2022-08-27T02:39:12;101103.34;;;20.82;79.96
66703;BME280;60933;46.398;-63.798;2022-08-27T02:41:38;101122.75;;;20.79;80.35
66703;BME280;60933;46.398;-63.798;2022-08-27T02:44:05;101118.72;;;20.74;80.95
66703;BME280;60933;46.398;-63.798;2022-08-27T02:46:31;101129.28;;;20.72;80.27
66703;BME280;60933;46.398;-63.798;2022-08-27T02:48:57;101124.22;;;20.69;80.38
66703;BME280;60933;46.398;-63.798;2022-08-27T02:51:23;101121.75;;;20.66;80.86
66703;BME280;60933;46.398;-63.798;2022-08-27T02:53:49;101114.09;;;20.63;80.76
66703;BME280;60933;46.398;-63.798;2022-08-27T02:56:16;101125.03;;;20.55;80.79
66703;BME280;60933;46.398;-63.798;2022-08-27T02:58:42;101112.31;;;20.49;81.00
66703;BME280;60933;46.398;-63.798;2022-08-27T03:01:08;101103.69;;;20.47;79.27
66703;BME280;60933;46.398;-63.798;2022-08-27T03:03:34;101098.66;;;20.44;81.49
66703;BME280;60933;46.398;-63.798;2022-08-27T03:06:00;101093.41;;;20.44;79.20
66703;BME280;60933;46.398;-63.798;2022-08-27T03:08:27;101106.53;;;20.44;78.15
66703;BME280;60933;46.398;-63.798;2022-08-27T03:10:54;101101.06;;;20.47;77.32
66703;BME280;60933;46.398;-63.798;2022-08-27T03:13:22;101089.38;;;20.52;76.97
66703;BME280;60933;46.398;-63.798;2022-08-27T03:15:48;101101.38;;;20.56;77.17
66703;BME280;60933;46.398;-63.798;2022-08-27T03:18:14;101099.59;;;20.57;76.83
66703;BME280;60933;46.398;-63.798;2022-08-27T03:20:46;101097.63;;;20.61;76.20
66703;BME280;60933;46.398;-63.798;2022-08-27T03:23:13;101088.06;;;20.60;76.27
66703;BME280;60933;46.398;-63.798;2022-08-27T03:25:43;101090.69;;;20.60;76.81
66703;BME280;60933;46.398;-63.798;2022-08-27T03:28:11;101096.84;;;20.59;76.26
66703;BME280;60933;46.398;-63.798;2022-08-27T03:30:39;101095.09;;;20.59;77.31
66703;BME280;60933;46.398;-63.798;2022-08-27T03:33:05;101097.78;;;20.58;76.62
66703;BME280;60933;46.398;-63.798;2022-08-27T03:35:32;101098.38;;;20.63;76.32
66703;BME280;60933;46.398;-63.798;2022-08-27T03:37:59;101090.41;;;20.64;77.00
66703;BME280;60933;46.398;-63.798;2022-08-27T03:40:25;101093.13;;;20.63;76.14
66703;BME280;60933;46.398;-63.798;2022-08-27T03:42:51;101087.78;;;20.64;76.11
66703;BME280;60933;46.398;-63.798;2022-08-27T03:45:17;101082.34;;;20.67;74.71
66703;BME280;60933;46.398;-63.798;2022-08-27T03:47:43;101092.63;;;20.70;77.81
66703;BME280;60933;46.398;-63.798;2022-08-27T03:50:09;101078.97;;;20.65;78.48
66703;BME280;60933;46.398;-63.798;2022-08-27T03:52:37;101081.50;;;20.67;78.53
66703;BME280;60933;46.398;-63.798;2022-08-27T03:55:05;101065.75;;;20.67;76.55
66703;BME280;60933;46.398;-63.798;2022-08-27T03:57:31;101052.94;;;20.62;77.98
66703;BME280;60933;46.398;-63.798;2022-08-27T03:59:58;101049.75;;;20.57;79.31
66703;BME280;60933;46.398;-63.798;2022-08-27T04:02:25;101058.56;;;20.56;80.01
66703;BME280;60933;46.398;-63.798;2022-08-27T04:04:52;101056.88;;;20.55;79.97
66703;BME280;60933;46.398;-63.798;2022-08-27T04:07:18;101060.34;;;20.55;78.02
66703;BME280;60933;46.398;-63.798;2022-08-27T04:09:44;101047.78;;;20.61;76.93
66703;BME280;60933;46.398;-63.798;2022-08-27T04:12:10;101081.78;;;20.62;78.63
66703;BME280;60933;46.398;-63.798;2022-08-27T04:14:36;101073.19;;;20.60;77.06
66703;BME280;60933;46.398;-63.798;2022-08-27T04:17:02;101091.25;;;20.65;76.60
66703;BME280;60933;46.398;-63.798;2022-08-27T04:19:28;101098.09;;;20.67;78.03
66703;BME280;60933;46.398;-63.798;2022-08-27T04:22:05;101098.09;;;20.67;75.52
66703;BME280;60933;46.398;-63.798;2022-08-27T04:24:34;101105.94;;;20.67;76.74
66703;BME280;60933;46.398;-63.798;2022-08-27T04:27:01;101108.97;;;20.61;78.29
66703;BME280;60933;46.398;-63.798;2022-08-27T04:29:27;101104.44;;;20.63;76.06
66703;BME280;60933;46.398;-63.798;2022-08-27T04:31:55;101090.88;;;20.56;77.48
66703;BME280;60933;46.398;-63.798;2022-08-27T04:34:21;101085.16;;;20.50;80.03
66703;BME280;60933;46.398;-63.798;2022-08-27T04:36:48;101091.44;;;20.47;80.72
66703;BME280;60933;46.398;-63.798;2022-08-27T04:39:15;101092.66;;;20.42;80.51
66703;BME280;60933;46.398;-63.798;2022-08-27T04:41:41;101091.16;;;20.37;81.15
66703;BME280;60933;46.398;-63.798;2022-08-27T04:44:09;101106.91;;;20.37;81.71
66703;BME280;60933;46.398;-63.798;2022-08-27T04:46:38;101115.69;;;20.36;79.83
66703;BME280;60933;46.398;-63.798;2022-08-27T04:49:11;101133.94;;;20.38;80.32
66703;BME280;60933;46.398;-63.798;2022-08-27T04:51:38;101134.78;;;20.38;80.88
66703;BME280;60933;46.398;-63.798;2022-08-27T04:54:05;101127.13;;;20.35;80.21
66703;BME280;60933;46.398;-63.798;2022-08-27T04:56:32;101117.66;;;20.33;78.84
66703;BME280;60933;46.398;-63.798;2022-08-27T04:59:00;101123.63;;;20.35;78.02
66703;BME280;60933;46.398;-63.798;2022-08-27T05:01:28;101108.75;;;20.35;77.24
66703;BME280;60933;46.398;-63.798;2022-08-27T05:03:55;101090.50;;;20.34;76.51
66703;BME280;60933;46.398;-63.798;2022-08-27T05:06:23;101106.91;;;20.37;78.56
66703;BME280;60933;46.398;-63.798;2022-08-27T05:08:50;101101.06;;;20.32;77.40
66703;BME280;60933;46.398;-63.798;2022-08-27T05:11:18;101096.59;;;20.34;77.89
66703;BME280;60933;46.398;-63.798;2022-08-27T05:13:46;101078.50;;;20.30;78.27
66703;BME280;60933;46.398;-63.798;2022-08-27T05:16:16;101069.16;;;20.26;78.76
66703;BME280;60933;46.398;-63.798;2022-08-27T05:18:44;101085.16;;;20.21;77.67
66703;BME280;60933;46.398;-63.798;2022-08-27T05:21:22;101080.94;;;20.18;77.67
66703;BME280;60933;46.398;-63.798;2022-08-27T05:23:49;101077.47;;;20.18;77.48
66703;BME280;60933;46.398;-63.798;2022-08-27T05:26:16;101084.56;;;20.16;78.59
66703;BME280;60933;46.398;-63.798;2022-08-27T05:28:42;101082.97;;;20.13;77.18
66703;BME280;60933;46.398;-63.798;2022-08-27T05:31:10;101083.19;;;20.10;78.34
66703;BME280;60933;46.398;-63.798;2022-08-27T05:33:37;101081.66;;;20.06;77.72
66703;BME280;60933;46.398;-63.798;2022-08-27T05:36:05;101075.59;;;20.05;79.81
66703;BME280;60933;46.398;-63.798;2022-08-27T05:38:32;101068.84;;;20.01;78.13
66703;BME280;60933;46.398;-63.798;2022-08-27T05:41:07;101081.75;;;20.04;77.97
66703;BME280;60933;46.398;-63.798;2022-08-27T05:43:34;101092.06;;;20.07;79.39
66703;BME280;60933;46.398;-63.798;2022-08-27T05:46:05;101081.94;;;20.01;80.42
66703;BME280;60933;46.398;-63.798;2022-08-27T05:48:33;101076.91;;;19.98;81.44
66703;BME280;60933;46.398;-63.798;2022-08-27T05:51:13;101075.38;;;19.94;81.40
66703;BME280;60933;46.398;-63.798;2022-08-27T05:53:40;101072.97;;;19.91;82.60
66703;BME280;60933;46.398;-63.798;2022-08-27T05:56:20;101069.75;;;19.86;79.67
66703;BME280;60933;46.398;-63.798;2022-08-27T05:58:48;101057.25;;;19.91;78.98
66703;BME280;60933;46.398;-63.798;2022-08-27T06:01:36;101046.56;;;19.94;79.44
66703;BME280;60933;46.398;-63.798;2022-08-27T06:04:04;101038.91;;;19.91;79.16
66703;BME280;60933;46.398;-63.798;2022-08-27T06:06:34;101032.53;;;19.95;78.56
66703;BME280;60933;46.398;-63.798;2022-08-27T06:09:00;101033.47;;;19.94;79.38
66703;BME280;60933;46.398;-63.798;2022-08-27T06:11:26;101034.22;;;19.96;77.49
66703;BME280;60933;46.398;-63.798;2022-08-27T06:13:54;101028.41;;;19.91;79.40
66703;BME280;60933;46.398;-63.798;2022-08-27T06:16:20;101035.25;;;19.93;78.59
66703;BME280;60933;46.398;-63.798;2022-08-27T06:18:48;101041.31;;;19.94;78.76
66703;BME280;60933;46.398;-63.798;2022-08-27T06:21:15;101045.53;;;19.97;79.47
66703;BME280;60933;46.398;-63.798;2022-08-27T06:23:42;101040.22;;;19.98;79.48
66703;BME280;60933;46.398;-63.798;2022-08-27T06:26:11;101046.38;;;19.97;81.52
66703;BME280;60933;46.398;-63.798;2022-08-27T06:28:38;101048.25;;;19.95;79.74
66703;BME280;60933;46.398;-63.798;2022-08-27T06:31:17;101054.25;;;19.97;80.46
66703;BME280;60933;46.398;-63.798;2022-08-27T06:33:45;101069.09;;;19.97;80.97
66703;BME280;60933;46.398;-63.798;2022-08-27T06:36:14;101070.13;;;19.94;83.04
66703;BME280;60933;46.398;-63.798;2022-08-27T06:38:41;101086.22;;;19.88;84.10
66703;BME280;60933;46.398;-63.798;2022-08-27T06:41:12;101077.00;;;19.81;82.80
66703;BME280;60933;46.398;-63.798;2022-08-27T06:43:40;101061.56;;;19.76;82.92
66703;BME280;60933;46.398;-63.798;2022-08-27T06:46:10;101062.28;;;19.64;82.66
66703;BME280;60933;46.398;-63.798;2022-08-27T06:48:37;101052.44;;;19.53;82.35
66703;BME280;60933;46.398;-63.798;2022-08-27T06:51:14;101050.16;;;19.46;84.28
66703;BME280;60933;46.398;-63.798;2022-08-27T06:53:42;101057.88;;;19.34;84.84
66703;BME280;60933;46.398;-63.798;2022-08-27T06:56:10;101070.28;;;19.14;84.80
66703;BME280;60933;46.398;-63.798;2022-08-27T06:58:38;101067.69;;;18.98;85.49
66703;BME280;60933;46.398;-63.798;2022-08-27T07:01:13;101076.94;;;18.88;86.14
66703;BME280;60933;46.398;-63.798;2022-08-27T07:03:41;101079.13;;;18.79;86.12
66703;BME280;60933;46.398;-63.798;2022-08-27T07:06:09;101080.38;;;18.72;86.44
66703;BME280;60933;46.398;-63.798;2022-08-27T07:08:36;101071.94;;;18.67;86.47
66703;BME280;60933;46.398;-63.798;2022-08-27T07:11:02;101091.28;;;18.64;86.70
66703;BME280;60933;46.398;-63.798;2022-08-27T07:13:29;101086.28;;;18.60;86.71
66703;BME280;60933;46.398;-63.798;2022-08-27T07:15:56;101079.69;;;18.53;86.68
66703;BME280;60933;46.398;-63.798;2022-08-27T07:18:22;101094.50;;;18.52;86.56
66703;BME280;60933;46.398;-63.798;2022-08-27T07:20:51;101099.97;;;18.47;86.87
66703;BME280;60933;46.398;-63.798;2022-08-27T07:23:19;101101.84;;;18.45;87.21
66703;BME280;60933;46.398;-63.798;2022-08-27T07:25:45;101104.03;;;18.37;87.30
66703;BME280;60933;46.398;-63.798;2022-08-27T07:28:11;101107.56;;;18.36;87.57
66703;BME280;60933;46.398;-63.798;2022-08-27T07:30:37;101105.09;;;18.33;87.35
66703;BME280;60933;46.398;-63.798;2022-08-27T07:33:03;101116.41;;;18.33;87.35
66703;BME280;60933;46.398;-63.798;2022-08-27T07:35:29;101118.31;;;18.30;87.50
66703;BME280;60933;46.398;-63.798;2022-08-27T07:37:56;101123.88;;;18.24;87.44
66703;BME280;60933;46.398;-63.798;2022-08-27T07:40:22;101111.88;;;18.19;87.69
66703;BME280;60933;46.398;-63.798;2022-08-27T07:42:49;101119.03;;;18.16;87.69
66703;BME280;60933;46.398;-63.798;2022-08-27T07:45:33;101118.34;;;18.12;88.03
66703;BME280;60933;46.398;-63.798;2022-08-27T07:47:59;101117.66;;;18.09;87.97
66703;BME280;60933;46.398;-63.798;2022-08-27T07:50:25;101119.88;;;17.99;87.38
66703;BME280;60933;46.398;-63.798;2022-08-27T07:52:52;101123.53;;;17.95;87.60
66703;BME280;60933;46.398;-63.798;2022-08-27T07:55:18;101123.06;;;17.86;87.48
66703;BME280;60933;46.398;-63.798;2022-08-27T07:57:44;101132.88;;;17.81;87.58
66703;BME280;60933;46.398;-63.798;2022-08-27T08:00:12;101133.88;;;17.79;87.45
66703;BME280;60933;46.398;-63.798;2022-08-27T08:02:39;101134.88;;;17.76;87.39
66703;BME280;60933;46.398;-63.798;2022-08-27T08:05:07;101130.81;;;17.70;87.31
66703;BME280;60933;46.398;-63.798;2022-08-27T08:07:34;101135.19;;;17.70;87.54
66703;BME280;60933;46.398;-63.798;2022-08-27T08:10:08;101135.47;;;17.64;87.45
66703;BME280;60933;46.398;-63.798;2022-08-27T08:12:34;101133.78;;;17.63;87.72
66703;BME280;60933;46.398;-63.798;2022-08-27T08:15:01;101132.38;;;17.55;87.52
66703;BME280;60933;46.398;-63.798;2022-08-27T08:17:28;101149.81;;;17.55;87.77
66703;BME280;60933;46.398;-63.798;2022-08-27T08:19:55;101152.56;;;17.52;87.79
66703;BME280;60933;46.398;-63.798;2022-08-27T08:22:21;101151.13;;;17.46;87.82
66703;BME280;60933;46.398;-63.798;2022-08-27T08:24:47;101150.47;;;17.41;87.80
66703;BME280;60933;46.398;-63.798;2022-08-27T08:27:14;101139.41;;;17.36;87.96
66703;BME280;60933;46.398;-63.798;2022-08-27T08:29:40;101136.19;;;17.31;88.29
66703;BME280;60933;46.398;-63.798;2022-08-27T08:32:07;101141.22;;;17.34;88.04
66703;BME280;60933;46.398;-63.798;2022-08-27T08:34:33;101138.78;;;17.31;88.09
66703;BME280;60933;46.398;-63.798;2022-08-27T08:37:00;101138.00;;;17.29;88.17
66703;BME280;60933;46.398;-63.798;2022-08-27T08:39:26;101139.75;;;17.28;87.99
66703;BME280;60933;46.398;-63.798;2022-08-27T08:41:58;101134.13;;;17.18;87.93
66703;BME280;60933;46.398;-63.798;2022-08-27T08:44:27;101154.84;;;17.21;88.18
66703;BME280;60933;46.398;-63.798;2022-08-27T08:47:16;101154.06;;;17.19;88.49
66703;BME280;60933;46.398;-63.798;2022-08-27T08:50:02;101159.38;;;17.18;88.45
66703;BME280;60933;46.398;-63.798;2022-08-27T09:01:03;101175.34;;;17.10;89.02
66703;BME280;60933;46.398;-63.798;2022-08-27T09:03:32;101174.44;;;17.11;89.05
66703;BME280;60933;46.398;-63.798;2022-08-27T09:06:28;101177.13;;;17.09;89.31
66703;BME280;60933;46.398;-63.798;2022-08-27T09:08:51;101170.13;;;17.10;89.40
66703;BME280;60933;46.398;-63.798;2022-08-27T09:11:34;101173.19;;;17.01;89.54
66703;BME280;60933;46.398;-63.798;2022-08-27T09:14:33;101178.13;;;17.07;89.56
66703;BME280;60933;46.398;-63.798;2022-08-27T09:17:01;101181.00;;;17.01;89.79
66703;BME280;60933;46.398;-63.798;2022-08-27T09:19:28;101172.69;;;16.92;89.58
66703;BME280;60933;46.398;-63.798;2022-08-27T09:22:11;101199.28;;;17.01;89.72
66703;BME280;60933;46.398;-63.798;2022-08-27T09:27:39;101203.63;;;17.00;89.95
66703;BME280;60933;46.398;-63.798;2022-08-27T09:30:12;101196.97;;;16.93;89.91
66703;BME280;60933;46.398;-63.798;2022-08-27T09:32:38;101208.91;;;16.99;90.04
66703;BME280;60933;46.398;-63.798;2022-08-27T09:35:08;101214.22;;;16.97;90.07
66703;BME280;60933;46.398;-63.798;2022-08-27T09:37:41;101216.03;;;16.95;90.01
66703;BME280;60933;46.398;-63.798;2022-08-27T09:40:17;101210.81;;;16.95;90.15
66703;BME280;60933;46.398;-63.798;2022-08-27T09:42:49;101207.28;;;16.96;89.96
66703;BME280;60933;46.398;-63.798;2022-08-27T09:45:20;101204.84;;;16.91;89.75
66703;BME280;60933;46.398;-63.798;2022-08-27T09:47:50;101215.16;;;16.95;89.63
66703;BME280;60933;46.398;-63.798;2022-08-27T09:50:20;101221.28;;;16.93;89.61
66703;BME280;60933;46.398;-63.798;2022-08-27T09:52:54;101225.59;;;16.95;89.93
66703;BME280;60933;46.398;-63.798;2022-08-27T09:55:46;101220.25;;;16.98;89.71
66703;BME280;60933;46.398;-63.798;2022-08-27T09:58:23;101216.81;;;16.97;89.52
66703;BME280;60933;46.398;-63.798;2022-08-27T10:01:05;101227.28;;;16.96;88.96
66703;BME280;60933;46.398;-63.798;2022-08-27T10:03:40;101235.19;;;16.94;88.73
66703;BME280;60933;46.398;-63.798;2022-08-27T10:06:07;101246.53;;;16.93;88.51
66703;BME280;60933;46.398;-63.798;2022-08-27T10:08:44;101251.84;;;16.90;88.13
66703;BME280;60933;46.398;-63.798;2022-08-27T10:11:24;101244.25;;;16.85;88.22
66703;BME280;60933;46.398;-63.798;2022-08-27T10:19:34;101260.78;;;16.84;87.50
66703;BME280;60933;46.398;-63.798;2022-08-27T10:22:30;101251.38;;;16.80;87.04
66703;BME280;60933;46.398;-63.798;2022-08-27T10:28:02;101253.97;;;16.82;87.06
66703;BME280;60933;46.398;-63.798;2022-08-27T10:38:45;101273.94;;;16.81;87.52
66703;BME280;60933;46.398;-63.798;2022-08-27T10:41:41;101276.69;;;16.78;87.48
66703;BME280;60933;46.398;-63.798;2022-08-27T10:47:35;101289.94;;;16.73;87.29
66703;BME280;60933;46.398;-63.798;2022-08-27T10:55:42;101295.19;;;16.72;86.77
66703;BME280;60933;46.398;-63.798;2022-08-27T11:03:42;101304.78;;;16.71;85.95
66703;BME280;60933;46.398;-63.798;2022-08-27T11:06:29;101305.56;;;16.73;85.92
66703;BME280;60933;46.398;-63.798;2022-08-27T11:09:09;101309.13;;;16.71;85.38
66703;BME280;60933;46.398;-63.798;2022-08-27T11:11:42;101296.81;;;16.74;85.70
66703;BME280;60933;46.398;-63.798;2022-08-27T11:17:20;101306.75;;;16.87;85.20
66703;BME280;60933;46.398;-63.798;2022-08-27T11:20:15;101306.44;;;16.95;85.13
66703;BME280;60933;46.398;-63.798;2022-08-27T11:27:40;101319.09;;;17.04;84.25
66703;BME280;60933;46.398;-63.798;2022-08-27T11:30:22;101318.81;;;17.10;84.12
66703;BME280;60933;46.398;-63.798;2022-08-27T11:33:12;101311.66;;;17.15;84.40
66703;BME280;60933;46.398;-63.798;2022-08-27T11:41:02;101327.81;;;17.23;84.09
66703;BME280;60933;46.398;-63.798;2022-08-27T11:43:34;101322.84;;;17.17;83.61
66703;BME280;60933;46.398;-63.798;2022-08-27T11:46:06;101309.81;;;17.17;84.47
66703;BME280;60933;46.398;-63.798;2022-08-27T11:48:39;101320.13;;;17.20;84.22
66703;BME280;60933;46.398;-63.798;2022-08-27T11:51:54;101324.44;;;17.21;84.35
66703;BME280;60933;46.398;-63.798;2022-08-27T11:54:01;101325.06;;;17.27;84.41
66703;BME280;60933;46.398;-63.798;2022-08-27T11:59:21;101330.00;;;17.33;84.14
66703;BME280;60933;46.398;-63.798;2022-08-27T12:01:48;101334.97;;;17.39;83.56
66703;BME280;60933;46.398;-63.798;2022-08-27T12:07:08;101333.84;;;17.45;82.77
66703;BME280;60933;46.398;-63.798;2022-08-27T12:10:07;101336.25;;;17.49;83.22
66703;BME280;60933;46.398;-63.798;2022-08-27T12:20:54;101334.16;;;17.58;79.93
66703;BME280;60933;46.398;-63.798;2022-08-27T12:23:25;101345.72;;;17.71;79.77
66703;BME280;60933;46.398;-63.798;2022-08-27T12:26:20;101350.41;;;17.83;79.31
66703;BME280;60933;46.398;-63.798;2022-08-27T12:31:45;101349.91;;;17.94;79.52
66703;BME280;60933;46.398;-63.798;2022-08-27T12:34:18;101351.56;;;17.97;80.09
66703;BME280;60933;46.398;-63.798;2022-08-27T12:36:49;101360.88;;;18.02;80.35
66703;BME280;60933;46.398;-63.798;2022-08-27T12:39:18;101359.09;;;18.03;79.90
66703;BME280;60933;46.398;-63.798;2022-08-27T12:41:48;101364.81;;;18.11;80.30
66703;BME280;60933;46.398;-63.798;2022-08-27T12:47:03;101381.19;;;18.15;76.30
66703;BME280;60933;46.398;-63.798;2022-08-27T12:49:46;101392.34;;;18.18;75.79
66703;BME280;60933;46.398;-63.798;2022-08-27T12:55:17;101402.88;;;18.36;74.83
66703;BME280;60933;46.398;-63.798;2022-08-27T13:00:21;101395.81;;;18.38;74.13
66703;BME280;60933;46.398;-63.798;2022-08-27T13:03:16;101404.28;;;18.43;73.40
66703;BME280;60933;46.398;-63.798;2022-08-27T13:05:47;101411.81;;;18.49;73.40
66703;BME280;60933;46.398;-63.798;2022-08-27T13:08:27;101412.53;;;18.53;73.21
66703;BME280;60933;46.398;-63.798;2022-08-27T13:10:54;101402.53;;;18.61;73.00
66703;BME280;60933;46.398;-63.798;2022-08-27T13:13:24;101401.41;;;18.67;72.88
66703;BME280;60933;46.398;-63.798;2022-08-27T13:15:55;101405.09;;;18.80;73.40
66703;BME280;60933;46.398;-63.798;2022-08-27T13:18:23;101408.91;;;18.92;72.66
66703;BME280;60933;46.398;-63.798;2022-08-27T13:21:00;101394.50;;;18.83;71.69
66703;BME280;60933;46.398;-63.798;2022-08-27T13:23:28;101396.44;;;18.97;72.20
66703;BME280;60933;46.398;-63.798;2022-08-27T13:25:57;101413.16;;;18.95;69.63
66703;BME280;60933;46.398;-63.798;2022-08-27T13:28:28;101417.25;;;19.01;70.36
66703;BME280;60933;46.398;-63.798;2022-08-27T13:30:55;101416.22;;;19.03;70.74
66703;BME280;60933;46.398;-63.798;2022-08-27T13:33:24;101423.16;;;19.04;69.26
66703;BME280;60933;46.398;-63.798;2022-08-27T13:35:52;101434.47;;;19.22;68.57
66703;BME280;60933;46.398;-63.798;2022-08-27T13:38:20;101424.38;;;19.50;69.48
66703;BME280;60933;46.398;-63.798;2022-08-27T13:41:04;101434.81;;;19.67;68.91
66703;BME280;60933;46.398;-63.798;2022-08-27T13:43:32;101419.81;;;19.53;68.21
66703;BME280;60933;46.398;-63.798;2022-08-27T13:46:02;101444.06;;;19.74;68.60
66703;BME280;60933;46.398;-63.798;2022-08-27T13:48:31;101451.50;;;19.82;68.09
66703;BME280;60933;46.398;-63.798;2022-08-27T13:50:58;101446.06;;;19.69;66.27
66703;BME280;60933;46.398;-63.798;2022-08-27T13:53:27;101461.28;;;19.78;67.24
66703;BME280;60933;46.398;-63.798;2022-08-27T13:56:30;101464.59;;;19.82;66.20
66703;BME280;60933;46.398;-63.798;2022-08-27T14:04:42;101473.22;;;20.18;65.63
66703;BME280;60933;46.398;-63.798;2022-08-27T14:07:11;101474.41;;;20.12;63.14
66703;BME280;60933;46.398;-63.798;2022-08-27T14:09:48;101466.03;;;20.05;63.27
66703;BME280;60933;46.398;-63.798;2022-08-27T14:12:29;101467.06;;;20.19;63.91
66703;BME280;60933;46.398;-63.798;2022-08-27T14:14:56;101470.03;;;20.13;63.71